< < Back
Terminal Aerodrome Forecast


Current Version              Previous Versions:   1  2  3  4  5  6  7  8  9  

Terminal Aerodrome Forecast

297
FTUS42 KGSP 220500
TAFAND
TAF
KAND 220535Z 2206/2306 24003KT P6SM SCT210
     FM221400 26009KT P6SM BKN240
     FM221600 26012KT P6SM BKN120 PROB30 2216/2217 4SM TSRA BKN070CB
     FM221900 27011KT P6SM -SHRA VCTS BKN070CB
     FM222200 27010KT P6SM BKN080
     FM230100 29005KT P6SM FEW250=



Latest METAR

620
SAUS70 KWBC 230700 RRB
MTRAND
METAR KAND 230656Z AUTO 29006KT 10SM CLR 15/14 A2980 RMK AO2 SLP084
T01500139


USA.gov is the U.S. government's official web portal to all federal, state and local government web resources and services.